createdAt,value
2019-04-21T00:00:35.751Z,4.55
2019-04-21T00:03:09.934Z,3.62
2019-04-21T00:05:58.615Z,3.40
2019-04-21T00:08:33.328Z,4.00
2019-04-21T00:11:05.815Z,3.87
2019-04-21T00:13:23.349Z,3.72
2019-04-21T00:15:45.687Z,4.00
2019-04-21T00:18:13.609Z,3.20
2019-04-21T00:20:49.529Z,2.75
2019-04-21T00:23:29.910Z,2.92
2019-04-21T00:25:54.201Z,3.50
2019-04-21T00:28:37.747Z,3.30
2019-04-21T00:31:01.893Z,3.92
2019-04-21T00:33:20.745Z,3.72
2019-04-21T00:35:52.619Z,3.98
2019-04-21T00:38:32.372Z,3.70
2019-04-21T00:41:05.492Z,3.65
2019-04-21T00:43:33.323Z,3.83
2019-04-21T00:45:57.599Z,3.65
2019-04-21T00:48:37.867Z,3.05
2019-04-21T00:53:51.559Z,3.65
2019-04-21T00:56:21.532Z,3.60
2019-04-21T00:58:47.908Z,3.15
2019-04-21T01:01:14.969Z,3.15
2019-04-21T01:03:51.977Z,3.40
2019-04-21T01:06:26.853Z,3.70
2019-04-21T01:08:45.792Z,3.02
2019-04-21T01:11:19.663Z,3.50
2019-04-21T01:14:02.409Z,3.70
2019-04-21T01:16:30.266Z,3.17
2019-04-21T01:18:55.268Z,3.95
2019-04-21T01:21:13.623Z,3.40
2019-04-21T01:23:35.837Z,3.52
2019-04-21T01:26:20.868Z,3.00
2019-04-21T01:28:52.414Z,3.27
2019-04-21T01:31:22.947Z,3.55
2019-04-21T01:33:56.215Z,3.50
2019-04-21T01:36:24.165Z,3.50
2019-04-21T01:39:00.946Z,3.70
2019-04-21T01:41:33.644Z,4.15
2019-04-21T01:43:54.571Z,3.55
2019-04-21T01:46:28.164Z,3.90
2019-04-21T01:48:52.538Z,4.12
2019-04-21T01:51:29.586Z,3.60
2019-04-21T01:54:14.751Z,3.70
2019-04-21T01:56:49.791Z,4.10
2019-04-21T01:59:03.752Z,2.83
2019-04-21T02:01:46.085Z,3.02
2019-04-21T02:04:24.232Z,3.42
2019-04-21T02:06:55.018Z,3.65
2019-04-21T02:09:15.263Z,3.42
2019-04-21T02:11:55.069Z,3.35
2019-04-21T02:14:23.680Z,3.40
2019-04-21T02:16:52.028Z,3.22
2019-04-21T02:19:21.596Z,3.52
2019-04-21T02:21:43.624Z,3.10
2019-04-21T02:24:31.639Z,3.27
2019-04-21T02:26:55.911Z,3.35
2019-04-21T02:29:28.954Z,3.70
2019-04-21T02:32:01.723Z,3.40
2019-04-21T02:35:04.200Z,3.77
2019-04-21T02:37:38.399Z,3.58
2019-04-21T02:39:58.822Z,3.25
2019-04-21T02:42:18.703Z,3.47
2019-04-21T02:47:27.456Z,3.75
2019-04-21T02:50:06.056Z,3.65
2019-04-21T02:52:31.684Z,3.22
2019-04-21T02:54:57.129Z,3.27
2019-04-21T02:57:22.670Z,3.90
2019-04-21T03:02:42.184Z,3.90
2019-04-21T03:05:21.152Z,3.77
2019-04-21T03:07:46.523Z,3.60
2019-04-21T03:10:22.285Z,3.55
2019-04-21T03:12:38.500Z,3.85
2019-04-21T03:17:54.962Z,3.20
2019-04-21T03:20:18.986Z,3.60
2019-04-21T03:23:16.143Z,3.95
2019-04-21T03:25:39.113Z,3.30
2019-04-21T03:30:29.422Z,3.55
2019-04-21T03:37:49.731Z,4.08
2019-04-21T03:40:15.427Z,3.40
2019-04-21T03:42:47.802Z,3.37
2019-04-21T03:45:30.961Z,3.47
2019-04-21T03:50:29.655Z,3.65
2019-04-21T03:55:50.409Z,3.30
2019-04-21T04:01:02.981Z,3.62
2019-04-21T04:03:42.172Z,3.72
2019-04-21T04:09:14.290Z,3.67
2019-04-21T04:11:19.761Z,3.30
2019-04-21T04:14:18.507Z,3.00
2019-04-21T04:16:16.919Z,4.25
2019-04-21T04:19:01.669Z,3.33
2019-04-21T04:24:00.896Z,3.50
2019-04-21T04:26:29.068Z,3.80
2019-04-21T04:36:33.880Z,3.10
2019-04-21T04:39:26.353Z,3.87
2019-04-21T04:42:03.562Z,3.60
2019-04-21T04:44:47.195Z,2.95
2019-04-21T04:47:05.507Z,2.95
2019-04-21T04:49:43.532Z,3.58
2019-04-21T04:52:19.219Z,3.30
2019-04-21T04:54:41.449Z,3.67
2019-04-21T04:57:08.498Z,3.40
2019-04-21T05:02:16.330Z,3.87
2019-04-21T05:04:42.076Z,3.30
2019-04-21T05:07:09.727Z,3.45
2019-04-21T05:09:30.819Z,3.85
2019-04-21T05:11:55.638Z,3.62
2019-04-21T05:14:30.397Z,3.12
2019-04-21T05:19:53.962Z,3.87
2019-04-21T05:21:54.682Z,3.90
2019-04-21T05:24:25.452Z,3.83
2019-04-21T05:26:48.004Z,3.30
2019-04-21T05:29:15.839Z,3.70
2019-04-21T05:32:01.461Z,3.50
2019-04-21T05:34:32.013Z,3.80
2019-04-21T05:37:07.521Z,4.22
2019-04-21T05:39:37.576Z,3.80
2019-04-21T05:42:00.732Z,4.00
2019-04-21T05:44:50.060Z,3.70
2019-04-21T05:47:22.127Z,3.42
2019-04-21T05:49:48.463Z,4.70
2019-04-21T05:52:14.577Z,4.20
2019-04-21T05:57:14.384Z,3.62
2019-04-21T05:59:51.066Z,4.10
2019-04-21T06:02:22.337Z,4.53
2019-04-21T06:07:25.599Z,3.80
2019-04-21T06:09:57.171Z,3.87
2019-04-21T06:12:20.886Z,4.00
2019-04-21T06:14:54.774Z,3.95
2019-04-21T06:17:30.306Z,3.75
2019-04-21T06:19:57.148Z,3.55
2019-04-21T06:22:19.529Z,3.83
2019-04-21T06:25:27.453Z,4.47
2019-04-21T06:27:29.896Z,3.72
2019-04-21T06:29:55.810Z,4.12
2019-04-21T06:32:38.166Z,3.98
2019-04-21T06:40:23.049Z,4.35
2019-04-21T06:42:34.296Z,3.80
2019-04-21T06:45:05.993Z,4.53
2019-04-21T06:47:47.772Z,4.35
2019-04-21T06:50:00.165Z,4.60
2019-04-21T06:52:46.678Z,4.43
2019-04-21T06:55:10.254Z,4.40
2019-04-21T06:57:34.989Z,5.00
2019-04-21T06:59:59.954Z,4.07
2019-04-21T07:02:51.955Z,4.60
2019-04-21T07:05:20.325Z,4.50
2019-04-21T07:07:35.253Z,4.30
2019-04-21T07:10:22.776Z,4.20
2019-04-21T07:12:37.126Z,4.53
2019-04-21T07:15:03.417Z,4.37
2019-04-21T07:17:32.645Z,5.20
2019-04-21T07:20:07.175Z,4.73
2019-04-21T07:22:36.885Z,4.20
2019-04-21T07:25:08.639Z,4.77
2019-04-21T07:27:36.563Z,3.97
2019-04-21T07:30:04.290Z,4.60
2019-04-21T07:32:33.473Z,4.13
2019-04-21T07:35:08.381Z,3.73
2019-04-21T07:37:35.382Z,4.20
2019-04-21T07:40:03.809Z,4.77
2019-04-21T07:42:32.576Z,4.80
2019-04-21T07:44:57.951Z,4.70
2019-04-21T07:47:53.141Z,3.60
2019-04-21T07:50:24.125Z,3.80
2019-04-21T07:53:06.986Z,3.67
2019-04-21T07:58:02.978Z,3.90
2019-04-21T08:00:43.903Z,3.60
2019-04-21T08:03:23.674Z,4.17
2019-04-21T08:05:39.271Z,3.67
2019-04-21T08:08:01.503Z,3.63
2019-04-21T08:10:34.976Z,3.67
2019-04-21T08:13:09.814Z,3.53
2019-04-21T08:15:38.286Z,3.03
2019-04-21T08:18:07.490Z,3.50
2019-04-21T08:20:34.985Z,3.07
2019-04-21T08:23:06.022Z,3.70
2019-04-21T08:25:47.730Z,3.10
2019-04-21T08:28:05.368Z,3.43
2019-04-21T08:30:40.845Z,3.40
2019-04-21T08:33:16.236Z,3.93
2019-04-21T08:36:06.025Z,3.10
2019-04-21T08:38:10.605Z,3.40
2019-04-21T08:40:42.416Z,3.10
2019-04-21T08:43:12.597Z,2.83
2019-04-21T08:45:44.558Z,3.33
2019-04-21T08:48:12.367Z,3.13
2019-04-21T08:50:41.591Z,3.00
2019-04-21T08:53:07.095Z,3.00
2019-04-21T08:55:51.006Z,3.40
2019-04-21T08:58:30.835Z,3.03
2019-04-21T09:01:14.143Z,3.20
2019-04-21T09:03:57.045Z,3.70
2019-04-21T09:08:52.278Z,3.77
2019-04-21T09:11:20.609Z,2.67
2019-04-21T09:13:47.714Z,2.93
2019-04-21T09:16:23.598Z,3.40
2019-04-21T09:18:45.633Z,2.90
2019-04-21T09:21:25.883Z,3.30
2019-04-21T09:23:52.388Z,3.50
2019-04-21T09:26:26.285Z,3.00
2019-04-21T09:28:50.605Z,3.17
2019-04-21T09:31:07.149Z,3.33
2019-04-21T09:33:42.435Z,3.37
2019-04-21T09:36:09.704Z,3.10
2019-04-21T09:38:39.844Z,3.30
2019-04-21T09:41:11.604Z,3.10
2019-04-21T09:43:44.762Z,3.20
2019-04-21T09:46:06.563Z,2.80
2019-04-21T09:48:47.813Z,3.60
2019-04-21T09:51:06.479Z,3.70
2019-04-21T09:53:38.111Z,3.57
2019-04-21T09:56:10.466Z,3.47
2019-04-21T09:58:40.731Z,3.30
2019-04-21T10:01:15.998Z,3.80
2019-04-21T10:03:41.212Z,3.60
2019-04-21T10:06:06.708Z,3.43
2019-04-21T10:08:36.395Z,3.17
2019-04-21T10:11:05.429Z,3.07
2019-04-21T10:13:34.013Z,3.90
2019-04-21T10:16:05.745Z,3.33
2019-04-21T10:18:34.222Z,3.87
2019-04-21T10:21:03.219Z,2.87
2019-04-21T10:23:31.947Z,2.93
2019-04-21T10:26:00.865Z,3.20
2019-04-21T10:28:31.153Z,3.10
2019-04-21T10:31:00.677Z,3.20
2019-04-21T10:33:30.352Z,3.83
2019-04-21T10:35:59.232Z,3.40
2019-04-21T10:38:35.655Z,3.50
2019-04-21T10:40:59.189Z,3.60
2019-04-21T10:43:29.165Z,3.47
2019-04-21T10:45:58.972Z,3.40
2019-04-21T10:48:28.727Z,3.40
2019-04-21T10:50:59.052Z,3.20
2019-04-21T10:53:29.203Z,3.50
2019-04-21T10:56:11.517Z,3.40
2019-04-21T10:58:29.510Z,3.43
2019-04-21T11:01:10.434Z,3.70
2019-04-21T11:03:58.442Z,3.00
2019-04-21T11:06:28.619Z,3.67
2019-04-21T11:08:59.966Z,3.87
2019-04-21T11:11:30.165Z,3.10
2019-04-21T11:13:58.927Z,3.63
2019-04-21T11:16:28.885Z,3.40
2019-04-21T11:18:57.955Z,3.70
2019-04-21T11:21:29.219Z,3.30
2019-04-21T11:23:58.425Z,4.23
2019-04-21T11:26:29.765Z,3.63
2019-04-21T11:28:58.989Z,3.87
2019-04-21T11:31:29.161Z,3.70
2019-04-21T11:33:57.746Z,3.37
2019-04-21T11:36:27.080Z,3.23
2019-04-21T11:39:12.369Z,3.40
2019-04-21T11:41:29.972Z,3.70
2019-04-21T11:43:59.198Z,4.20
2019-04-21T11:46:28.627Z,3.53
2019-04-21T11:48:58.049Z,3.53
2019-04-21T11:51:26.998Z,3.97
2019-04-21T11:53:56.941Z,3.20
2019-04-21T11:56:25.570Z,3.47
2019-04-21T11:58:54.164Z,3.50
2019-04-21T12:01:23.502Z,3.53
2019-04-21T12:03:51.997Z,3.20
2019-04-21T12:06:30.891Z,3.87
2019-04-21T12:08:52.951Z,3.43
2019-04-21T12:11:23.264Z,3.67
2019-04-21T12:13:52.120Z,3.17
2019-04-21T12:16:21.092Z,4.33
2019-04-21T12:18:51.210Z,3.00
2019-04-21T12:21:21.167Z,4.30
2019-04-21T12:23:50.296Z,3.70
2019-04-21T12:26:20.019Z,3.90
2019-04-21T12:28:50.004Z,4.13
2019-04-21T12:31:23.456Z,3.53
2019-04-21T12:33:54.066Z,3.50
2019-04-21T12:36:24.079Z,3.27
2019-04-21T12:38:57.712Z,3.70
2019-04-21T12:41:24.345Z,3.63
2019-04-21T12:43:53.270Z,3.17
2019-04-21T12:46:22.095Z,3.70
2019-04-21T12:48:51.633Z,3.63
2019-04-21T12:51:21.813Z,4.00
2019-04-21T12:53:51.791Z,3.30
2019-04-21T12:56:20.410Z,3.37
2019-04-21T12:58:49.083Z,3.40
2019-04-21T13:01:18.846Z,3.57
2019-04-21T13:03:47.988Z,3.97
2019-04-21T13:06:16.575Z,3.57
2019-04-21T13:08:53.596Z,3.70
2019-04-21T13:11:15.247Z,3.73
2019-04-21T13:13:43.885Z,3.37
2019-04-21T13:16:13.648Z,3.90
2019-04-21T13:18:42.373Z,3.57
2019-04-21T13:21:11.923Z,3.47
2019-04-21T13:23:41.155Z,3.27
2019-04-21T13:26:11.271Z,3.73
2019-04-21T13:28:40.474Z,3.57
2019-04-21T13:31:09.118Z,3.30
2019-04-21T13:33:37.773Z,3.70
2019-04-21T13:36:07.745Z,4.10
2019-04-21T13:38:43.159Z,3.30
2019-04-21T13:41:24.468Z,3.60
2019-04-21T13:43:39.420Z,2.90
2019-04-21T13:46:08.117Z,3.20
2019-04-21T13:48:36.949Z,4.37
2019-04-21T13:51:07.044Z,3.30
2019-04-21T13:53:36.281Z,3.47
2019-04-21T13:56:06.854Z,3.37
2019-04-21T13:58:35.405Z,4.30
2019-04-21T14:01:03.899Z,4.00
2019-04-21T14:03:33.380Z,3.20
2019-04-21T14:06:02.550Z,3.40
2019-04-21T14:08:31.327Z,3.20
2019-04-21T14:10:59.883Z,3.10
2019-04-21T14:13:28.460Z,4.17
2019-04-21T14:15:57.953Z,3.47
2019-04-21T14:18:26.870Z,3.47
2019-04-21T14:20:55.604Z,3.80
2019-04-21T14:23:32.453Z,3.47
2019-04-21T14:25:55.504Z,3.97
2019-04-21T14:28:24.211Z,3.57
2019-04-21T14:30:52.818Z,3.50
2019-04-21T14:33:23.515Z,3.53
2019-04-21T14:35:52.717Z,3.70
2019-04-21T14:38:22.674Z,3.60
2019-04-21T14:40:52.143Z,4.20
2019-04-21T14:43:21.685Z,3.63
2019-04-21T14:45:52.804Z,3.50
2019-04-21T14:48:23.250Z,4.03
2019-04-21T14:51:06.522Z,4.03
2019-04-21T14:53:43.626Z,3.30
2019-04-21T14:56:15.332Z,3.20
2019-04-21T14:58:43.886Z,3.60
2019-04-21T15:01:13.631Z,3.43
2019-04-21T15:03:43.705Z,3.40
2019-04-21T15:06:13.471Z,3.40
2019-04-21T15:08:42.955Z,3.13
2019-04-21T15:11:11.791Z,3.67
2019-04-21T15:13:41.679Z,2.93
2019-04-21T15:16:11.012Z,3.37
2019-04-21T15:18:40.912Z,3.13
2019-04-21T15:21:09.496Z,3.17
2019-04-21T15:23:38.178Z,3.87
2019-04-21T15:26:08.159Z,4.00
2019-04-21T15:28:37.885Z,3.10
2019-04-21T15:31:08.290Z,2.90
2019-04-21T15:33:37.350Z,3.03
2019-04-21T15:36:07.091Z,3.40
2019-04-21T15:38:35.931Z,3.93
2019-04-21T15:41:08.515Z,3.67
2019-04-21T15:43:36.326Z,3.63
2019-04-21T15:46:04.957Z,3.47
2019-04-21T15:48:33.420Z,3.33
2019-04-21T15:51:05.108Z,3.20
2019-04-21T15:53:37.399Z,3.23
2019-04-21T15:56:10.991Z,2.80
2019-04-21T15:58:50.545Z,7.90
2019-04-21T16:01:32.815Z,3.97
2019-04-21T16:04:02.838Z,6.10
2019-04-21T16:06:31.926Z,14.80
2019-04-21T16:09:02.496Z,6.63
2019-04-21T16:11:31.608Z,13.97
2019-04-21T16:14:01.728Z,12.20
2019-04-21T16:16:32.265Z,7.70
2019-04-21T16:19:00.581Z,3.30
2019-04-21T16:21:29.558Z,4.00
2019-04-21T16:23:58.400Z,3.13
2019-04-21T16:26:26.937Z,3.27
2019-04-21T16:28:55.451Z,3.40
2019-04-21T16:31:24.787Z,3.13
2019-04-21T16:33:54.689Z,3.50
2019-04-21T16:36:25.486Z,3.40
2019-04-21T16:38:55.509Z,3.27
2019-04-21T16:41:24.462Z,3.00
2019-04-21T16:43:53.266Z,3.10
2019-04-21T16:46:23.102Z,3.37
2019-04-21T16:48:51.757Z,3.17
2019-04-21T16:51:22.245Z,3.27
2019-04-21T16:53:52.378Z,3.40
2019-04-21T16:56:26.794Z,3.03
2019-04-21T16:58:57.236Z,3.43
2019-04-21T17:01:28.120Z,3.10
2019-04-21T17:03:58.276Z,3.23
2019-04-21T17:06:27.064Z,3.77
2019-04-21T17:08:56.817Z,3.80
2019-04-21T17:11:30.396Z,3.30
2019-04-21T17:13:56.670Z,4.07
2019-04-21T17:17:03.842Z,3.53
2019-04-21T17:19:05.200Z,3.70
2019-04-21T17:21:27.910Z,2.90
2019-04-21T17:23:56.745Z,3.07
2019-04-21T17:26:25.299Z,3.17
2019-04-21T17:28:54.375Z,3.00
2019-04-21T17:31:22.861Z,4.03
2019-04-21T17:33:57.861Z,2.37
2019-04-21T17:36:22.928Z,3.07
2019-04-21T17:38:52.284Z,3.10
2019-04-21T17:41:27.882Z,2.70
2019-04-21T17:43:51.037Z,3.10
2019-04-21T17:46:26.147Z,2.57
2019-04-21T17:48:52.621Z,3.10
2019-04-21T17:51:29.883Z,3.40
2019-04-21T17:54:13.637Z,3.20
2019-04-21T17:56:59.645Z,3.60
2019-04-21T17:59:43.166Z,3.20
2019-04-21T18:02:04.095Z,2.93
2019-04-21T18:04:42.937Z,3.20
2019-04-21T18:07:01.826Z,3.50
2019-04-21T18:09:44.114Z,4.50
2019-04-21T18:12:07.494Z,3.07
2019-04-21T18:14:20.693Z,3.07
2019-04-21T18:16:50.258Z,3.23
2019-04-21T18:19:19.374Z,3.03
2019-04-21T18:22:07.018Z,3.33
2019-04-21T18:24:47.676Z,3.40
2019-04-21T18:27:09.735Z,3.23
2019-04-21T18:29:38.514Z,2.87
2019-04-21T18:32:08.427Z,3.13
2019-04-21T18:34:47.781Z,2.67
2019-04-21T18:37:14.730Z,2.27
2019-04-21T18:39:55.883Z,2.50
2019-04-21T18:42:37.158Z,2.80
2019-04-21T18:45:37.236Z,2.90
2019-04-21T18:47:55.489Z,3.73
2019-04-21T18:50:29.385Z,11.63
2019-04-21T18:53:32.466Z,27.60
2019-04-21T18:55:50.310Z,20.70
2019-04-21T18:58:15.970Z,18.60
2019-04-21T19:00:45.902Z,18.60
2019-04-21T19:03:20.830Z,12.43
2019-04-21T19:05:50.861Z,7.20
2019-04-21T19:08:31.005Z,4.20
2019-04-21T19:11:10.311Z,4.00
2019-04-21T19:13:47.283Z,2.80
2019-04-21T19:18:56.559Z,2.67
2019-04-21T19:21:07.401Z,2.63
2019-04-21T19:23:45.252Z,3.40
2019-04-21T19:26:14.861Z,2.80
2019-04-21T19:28:41.919Z,2.90
2019-04-21T19:31:14.417Z,2.80
2019-04-21T19:33:34.628Z,2.90
2019-04-21T19:35:49.782Z,2.63
2019-04-21T19:38:31.210Z,2.60
2019-04-21T19:41:03.771Z,2.63
2019-04-21T19:43:41.205Z,3.40
2019-04-21T19:46:11.609Z,3.57
2019-04-21T19:48:47.522Z,2.73
2019-04-21T19:51:05.292Z,2.20
2019-04-21T19:53:29.649Z,2.57
2019-04-21T19:55:50.061Z,2.53
2019-04-21T19:58:26.110Z,2.60
2019-04-21T20:00:52.254Z,2.87
2019-04-21T20:03:20.827Z,2.53
2019-04-21T20:06:00.481Z,2.67
2019-04-21T20:08:32.608Z,2.70
2019-04-21T20:11:10.224Z,2.80
2019-04-21T20:13:52.992Z,2.70
2019-04-21T20:16:08.272Z,2.70
2019-04-21T20:18:27.379Z,2.80
2019-04-21T20:20:52.063Z,3.00
2019-04-21T20:23:30.026Z,2.77
2019-04-21T20:25:58.180Z,2.60
2019-04-21T20:28:38.451Z,2.73
2019-04-21T20:31:12.833Z,3.00
2019-04-21T20:36:19.394Z,2.60
2019-04-21T20:38:38.356Z,5.70
2019-04-21T20:41:03.529Z,3.30
2019-04-21T20:43:42.698Z,3.12
2019-04-21T20:46:15.703Z,2.90
2019-04-21T20:48:35.697Z,2.92
2019-04-21T20:51:13.046Z,2.85
2019-04-21T20:53:44.207Z,2.95
2019-04-21T20:56:08.961Z,2.65
2019-04-21T20:58:46.328Z,3.33
2019-04-21T21:01:25.465Z,2.80
2019-04-21T21:03:43.126Z,2.60
2019-04-21T21:06:16.157Z,3.22
2019-04-21T21:08:45.426Z,3.22
2019-04-21T21:11:10.751Z,3.20
2019-04-21T21:13:49.054Z,3.20
2019-04-21T21:16:35.639Z,3.47
2019-04-21T21:21:15.163Z,2.85
2019-04-21T21:23:48.098Z,2.95
2019-04-21T21:26:19.985Z,3.10
2019-04-21T21:28:39.042Z,2.75
2019-04-21T21:31:12.985Z,3.50
2019-04-21T21:33:59.160Z,3.75
2019-04-21T21:36:35.289Z,3.30
2019-04-21T21:38:53.011Z,3.22
2019-04-21T21:41:11.923Z,3.40
2019-04-21T21:43:31.322Z,3.15
2019-04-21T21:46:04.925Z,3.40
2019-04-21T21:48:44.955Z,2.95
2019-04-21T21:51:10.687Z,3.60
2019-04-21T21:53:34.104Z,2.92
2019-04-21T21:56:02.624Z,2.70
2019-04-21T21:58:36.767Z,3.10
2019-04-21T22:01:04.882Z,3.30
2019-04-21T22:03:38.928Z,3.83
2019-04-21T22:06:08.134Z,2.65
2019-04-21T22:08:32.495Z,2.98
2019-04-21T22:11:01.346Z,3.22
2019-04-21T22:13:40.967Z,3.10
2019-04-21T22:16:07.032Z,2.60
2019-04-21T22:18:51.129Z,2.47
2019-04-21T22:21:12.806Z,2.90
2019-04-21T22:23:43.838Z,3.12
2019-04-21T22:26:03.150Z,3.08
2019-04-21T22:28:31.806Z,3.45
2019-04-21T22:31:01.067Z,3.45
2019-04-21T22:33:33.317Z,3.65
2019-04-21T22:36:09.856Z,3.10
2019-04-21T22:38:43.449Z,3.50
2019-04-21T22:41:10.669Z,2.95
2019-04-21T22:43:36.653Z,3.27
2019-04-21T22:46:01.170Z,3.15
2019-04-21T22:48:30.665Z,3.85
2019-04-21T22:51:00.601Z,3.25
2019-04-21T22:53:36.269Z,2.92
2019-04-21T22:56:07.386Z,3.40
2019-04-21T22:58:35.695Z,3.60
2019-04-21T23:01:02.512Z,3.70
2019-04-21T23:03:30.771Z,3.35
2019-04-21T23:06:07.466Z,3.50
2019-04-21T23:08:36.983Z,3.05
2019-04-21T23:11:06.285Z,3.08
2019-04-21T23:13:32.777Z,4.08
2019-04-21T23:16:04.164Z,3.05
2019-04-21T23:18:48.045Z,3.20
2019-04-21T23:21:16.324Z,2.77
2019-04-21T23:23:51.731Z,3.05
2019-04-21T23:26:22.000Z,3.02
2019-04-21T23:28:55.767Z,3.75
2019-04-21T23:31:25.791Z,3.85
2019-04-21T23:33:34.453Z,2.95
2019-04-21T23:36:12.931Z,2.92
2019-04-21T23:38:40.819Z,3.12
2019-04-21T23:41:07.061Z,3.10
2019-04-21T23:43:35.404Z,3.00
2019-04-21T23:46:12.019Z,2.77
2019-04-21T23:48:48.690Z,3.33
2019-04-21T23:51:17.186Z,2.90
2019-04-21T23:53:35.337Z,3.10
2019-04-21T23:56:05.353Z,2.95
2019-04-21T23:58:36.265Z,3.45
